TimeEEST,TemperatureF,Dew PointF,Humidity,Sea Level PressureIn,VisibilityMPH,Wind Direction,Wind SpeedMPH,Gust SpeedMPH,PrecipitationIn,Events,Conditions,WindDirDegrees,DateUTC
12:20 AM,64.4,62.6,94,29.83,6.2,North,5.8,-,N/A,,Mostly Cloudy,360,2012-10-10 21:20:00
12:50 AM,62.6,62.6,100,29.80,6.2,ENE,4.6,-,N/A,Thunderstorm,Thunderstorm,60,2012-10-10 21:50:00
1:20 AM,62.6,62.6,100,29.80,6.2,ENE,4.6,-,N/A,Thunderstorm,Thunderstorm,70,2012-10-10 22:20:00
1:50 AM,60.8,60.8,100,29.80,6.2,ENE,4.6,-,N/A,Thunderstorm,Thunderstorm,60,2012-10-10 22:50:00
2:20 AM,62.6,60.8,94,29.80,6.2,ENE,6.9,-,N/A,,Mostly Cloudy,70,2012-10-10 23:20:00
2:50 AM,60.8,60.8,100,29.80,6.2,North,4.6,-,N/A,,Mostly Cloudy,10,2012-10-10 23:50:00
3:00 AM,60,60,100,29.81,6,North,4.6,,,,Partly Cloudy,10,2012-10-11 00:00:00
3:20 AM,60.8,60.8,100,29.80,6.2,NE,4.6,-,N/A,,Mostly Cloudy,50,2012-10-11 00:20:00
3:50 AM,60.8,60.8,100,29.80,6.2,East,3.5,-,N/A,,Mostly Cloudy,80,2012-10-11 00:50:00
4:50 AM,60.8,59.0,94,29.80,6.2,ENE,4.6,-,N/A,,Mostly Cloudy,70,2012-10-11 01:50:00
5:20 AM,59.0,59.0,100,29.80,6.2,NE,4.6,-,N/A,,Mostly Cloudy,50,2012-10-11 02:20:00
5:50 AM,59.0,59.0,100,29.77,6.2,NE,4.6,-,N/A,,Mostly Cloudy,50,2012-10-11 02:50:00
6:20 AM,60.8,59.0,94,29.80,6.2,NE,5.8,-,N/A,,Scattered Clouds,50,2012-10-11 03:20:00
6:50 AM,59.0,59.0,100,29.80,6.2,NNE,6.9,-,N/A,,Scattered Clouds,20,2012-10-11 03:50:00
7:20 AM,59.0,59.0,100,29.80,3.1,NE,5.8,-,N/A,,Scattered Clouds,50,2012-10-11 04:20:00
7:50 AM,59.0,59.0,100,29.80,3.1,NNE,3.5,-,N/A,,Scattered Clouds,30,2012-10-11 04:50:00
8:20 AM,60.8,59.0,94,29.80,4.3,NE,3.5,-,N/A,,Scattered Clouds,40,2012-10-11 05:20:00
8:50 AM,64.4,60.8,88,29.80,6.2,NE,4.6,-,N/A,,Scattered Clouds,40,2012-10-11 05:50:00
9:00 AM,64,60,84,29.82,6,NE,4.6,,,,Partly Cloudy,40,2012-10-11 06:00:00
9:20 AM,66.2,62.6,88,29.80,6.2,NE,4.6,-,N/A,,Scattered Clouds,40,2012-10-11 06:20:00
9:50 AM,68.0,60.8,78,29.80,6.2,NE,5.8,-,N/A,,Scattered Clouds,50,2012-10-11 06:50:00
10:20 AM,71.6,62.6,73,29.80,6.2,NNE,5.8,-,N/A,,Partly Cloudy,30,2012-10-11 07:20:00
10:50 AM,73.4,57.2,57,29.80,6.2,North,4.6,-,N/A,,Partly Cloudy,350,2012-10-11 07:50:00
11:20 AM,75.2,57.2,53,29.83,6.2,WSW,4.6,-,N/A,,Partly Cloudy,250,2012-10-11 08:20:00
11:50 AM,75.2,57.2,53,29.80,6.2,SSW,4.6,-,N/A,,Partly Cloudy,210,2012-10-11 08:50:00
12:20 PM,77.0,57.2,50,29.80,6.2,SSW,6.9,-,N/A,,Partly Cloudy,200,2012-10-11 09:20:00
12:50 PM,77.0,60.8,57,29.80,6.2,South,9.2,-,N/A,,Partly Cloudy,190,2012-10-11 09:50:00
1:20 PM,78.8,60.8,54,29.80,6.2,WSW,15.0,-,N/A,,Partly Cloudy,240,2012-10-11 10:20:00
1:50 PM,78.8,59.0,51,29.80,6.2,WSW,16.1,-,N/A,,Partly Cloudy,240,2012-10-11 10:50:00
2:20 PM,78.8,60.8,54,29.80,6.2,WSW,16.1,-,N/A,,Partly Cloudy,250,2012-10-11 11:20:00
2:50 PM,78.8,60.8,54,29.80,6.2,WSW,17.3,-,N/A,,Scattered Clouds,250,2012-10-11 11:50:00
3:00 PM,79,60,42,29.81,6,WSW,17.3,,,,Partly Cloudy,250,2012-10-11 12:00:00
3:20 PM,78.8,62.6,57,29.80,6.2,WSW,17.3,-,N/A,,Scattered Clouds,250,2012-10-11 12:20:00
3:50 PM,78.8,62.6,57,29.77,6.2,WSW,18.4,-,N/A,,Scattered Clouds,250,2012-10-11 12:50:00
4:20 PM,78.8,62.6,57,29.80,6.2,WSW,17.3,-,N/A,,Scattered Clouds,250,2012-10-11 13:20:00
4:50 PM,77.0,62.6,61,29.80,6.2,WSW,18.4,-,N/A,,Scattered Clouds,250,2012-10-11 13:50:00
5:20 PM,77.0,60.8,57,29.80,6.2,WSW,17.3,-,N/A,,Scattered Clouds,250,2012-10-11 14:20:00
5:50 PM,77.0,62.6,61,29.80,6.2,WSW,18.4,-,N/A,,Scattered Clouds,250,2012-10-11 14:50:00
6:20 PM,77.0,59.0,54,29.80,6.2,West,12.7,-,N/A,,Scattered Clouds,260,2012-10-11 15:20:00
6:50 PM,75.2,57.2,53,29.83,6.2,WNW,4.6,-,N/A,,Partly Cloudy,290,2012-10-11 15:50:00
7:20 PM,73.4,57.2,57,29.83,6.2,East,4.6,-,N/A,,Partly Cloudy,100,2012-10-11 16:20:00
7:50 PM,71.6,57.2,60,29.83,6.2,Variable,2.3,-,N/A,,Partly Cloudy,0,2012-10-11 16:50:00
8:20 PM,69.8,59.0,68,29.86,6.2,Calm,Calm,-,N/A,,Partly Cloudy,0,2012-10-11 17:20:00
8:50 PM,66.2,59.0,78,29.86,6.2,Variable,2.3,-,N/A,,Partly Cloudy,0,2012-10-11 17:50:00
9:00 PM,67,59,69,29.87,6,NW,2.3,,,,Scattered Clouds,320,2012-10-11 18:00:00
9:20 PM,66.2,59.0,78,29.86,6.2,NNE,4.6,-,N/A,,Partly Cloudy,30,2012-10-11 18:20:00
9:50 PM,64.4,59.0,83,29.89,6.2,NNE,6.9,-,N/A,,Partly Cloudy,20,2012-10-11 18:50:00
10:20 PM,66.2,59.0,78,29.89,6.2,North,4.6,-,N/A,,Partly Cloudy,10,2012-10-11 19:20:00
11:20 PM,62.6,59.0,88,29.89,-9999.0,NNE,6.9,-,N/A,,Clear,20,2012-10-11 20:20:00
11:50 PM,62.6,59.0,88,29.89,-9999.0,NE,4.6,-,N/A,,Clear,50,2012-10-11 20:50:00